Kent, WA

12:01 AM PDT on October 22, 2014 (GMT -0700)
Jim-East Hill | Change Station
CLOSE
Current Station
Personal Weather Station
Location: Kent, WA
Elevation: 436 ft
Nearby Weather Stations

Elev 436 ft 47.38 °N, 122.20 °W | Updated 11 seconds ago

Overcast
Overcast
54.2 °F
Feels Like 54.2 °F
N
1.0
Wind Variable Wind from ESE
Gusts 0.0 mph

Today
High -- | Low -- °F
--% Chance of Precip.
Yesterday
High -- | Low -- °F
Precip. -- in
7:37 AM 6:08 PM
Waning Crescent, 3% visible
Pressure 29.77 in
Visibility 10.0 miles
Clouds Mostly Cloudy 8000 ft
Overcast 9000 ft
Dew Point 49 °F
Humidity 82%
Rainfall 0.00 in
Snow Depth Not available.
UV 0.0 out of 12
Pollen .40 out of 12
Air Quality Not available.
Flu Activity Sporadic
METAR KSEA 220653Z 15009KT 10SM BKN080 OVC090 14/07 A2975 RMK AO2 SLP079 T01440072

More Conditions Fewer Conditions

Pressure 29.77 in
Visibility 10.0 miles
Clouds Mostly Cloudy 8000 ft
Overcast 9000 ft
Dew Point 49 °F
Humidity 82%
Rainfall 0.00 in
Snow Depth Not available.
UV 0.0 out of 12
Pollen .40 out of 12
Air Quality Not available.
Flu Activity Sporadic
METAR KSEA 220653Z 15009KT 10SM BKN080 OVC090 14/07 A2975 RMK AO2 SLP079 T01440072

More Conditions Fewer Conditions

10-Day Weather Forecast

Almanac

Astronomy

Oct. 22, 2014 Rise Set
Actual Time 7:37 AM PDT 6:08 PM PDT
Civil Twilight 7:06 AM PDT 6:39 PM PDT
Nautical Twilight 6:30 AM PDT 7:15 PM PDT
Astronomical Twilight 5:55 AM PDT 7:50 PM PDT
Moon 6:19 AM PDT 5:40 PM PDT
Length of Visible Light 11h 33m
Length of Day
10h 30m
Tomorrow will be 3m 13s shorter.
Waning Crescent, 3% of the Moon is Illuminated
Today
Waning Crescent
Oct 23
New
Oct 30
First Quarter
Nov 6
Full
Nov 14
Last Quarter

Community

WunderPhotos

Upload Photos

1,763,884 photos uploaded!

Nearby

Air Quality

  Air Quality AQ Index Pollutant
Tuesday Good
PM2.5
Wednesday Good
PM2.5
Thursday Good
PM2.5
Friday Good
PM2.5
Saturday Good
PM2.5

Snow Depth

Station Depth Elevation
Mount Gardner 0 in 3000 ft
Skookum Creek 0 in 3920 ft
Meadows Pass 0 in 3500 ft
Alpine Meadows 0 in 3500 ft
Stampede Pass 0 in 3860 ft

Earthquake Activity

City Distance Mag. Time & Date
No recent earthquake activity has been reported nearby.
Minimum magnitude displayed is 2.5.

Coastal Water Temperatures

Place Temperature
Port Townsend, WA 53.1 °F
Seattle, WA 55.0 °F
Friday Harbor, WA 51.1 °F
Tacoma, WA 54.0 °F

Nearby Weather Stations